Aeroporto :
LOGIN :

Iscrizione | Disclaimer

   EN    FR    IT 

 










Sommario :    VFR   VFR Marginale   IFR   IFR Intensivo   IFR Molto Intensivo
Visibilità : 
Base nubi : 
>= 8 km
>= 3000ft
5 / 8 km
1000 / 3000 ft
1500m / 5 km
500 / 1000 ft
800 / 1500m
200 / 500 ft
< 800m
< 200 ft
Simboli :   Temporali  Nebbia  Neve Forte  Precipitazioni Forti  Vento > 20 kt
SIGMETs :   Varie  Temporali  Ghiacco  Turbolenza  Onda orograficha  Ceneri Vulcaniche






- Altitudine del aeroporto : 327 ft
- Codice IATA : BHX


EGBB - Birmingham

ULTIMO METAR :
  • 231150Z 30011KT 9999 VCSH BKN007 13/11 Q0998 RERA

METARs OBSOLETI :
  • 231120Z 21007KT 160V240 9000 -RA BKN007 14/13 Q0998
  • 231050Z 19007KT 9000 -RADZ BKN008 BKN015 14/13 Q0998 REDZ
  • 231020Z 19007KT 150V230 4000 RADZ SCT007 BKN010 14/13 Q0999 REDZ
  • 230950Z 20008KT 180V240 4000 RADZ BKN010 OVC016 15/12 Q0999
  • 230920Z 19008KT 150V230 9999 BKN012 14/13 Q0999

TAF TAF EGBB
Valido dal 23 a 12 ore il 24 a 12 ore UTC


231054Z 2312/2412 24010KT 9999 SCT020
BECMG 2312/2315 31007KT
TEMPO 2312/2315 6000 RA BKN011
PROB30
TEMPO 2312/2313 3000 +RA BKN008
PROB40
TEMPO 2315/2322 6000 RA BKN014
TEMPO 2404/2412 22015G28KT 6000 SHRA BKN014
PROB30
TEMPO 2410/2412 4000 +SHRA
ATIS : +44 121 780 0910



MetMap, La meteo Aeronautica in un colpo d'occhio ! - Copyright ORBIFLY Dicembre 2007 - Disclaimer

ORBIFLY MET'MAP TEAM :

Programmazione e sviluppo : Alexandra Zaïnal
Concezione : Baudouin d'Aumeries
Aiuto per la programmazione : Marc-Olivier Méhu
Supporto tecnico e logistico : Manuel Goepfert
Aiuto per la traduzione : Arnaldo La Scala

Contatto : metmap@orbifly.com




FONTI E CREDITI :

   NOAA